Time;durP1;ratioP1;P1;durP2;ratioP2;P2;SDS_P1;SDS_P2;PMS_P1;PMS_P2;Temp;Humidity;BMP_temperature;BMP_pressure;BME280_temperature;BME280_humidity;BME280_pressure;Samples;Min_cycle;Max_cycle;Signal;HPM_P1;HPM_P2
2022/03/03 00:01:40;;;;;;;64.50;40.33;;;;;;;;;;4962972;28;20379;-71
2022/03/03 00:04:45;;;;;;;71.70;41.80;;;;;;;;;;4974894;28;20053;-71
2022/03/03 00:07:49;;;;;;;67.13;42.38;;;;;;;;;;4975101;28;20046;-70
2022/03/03 00:10:54;;;;;;;68.65;44.40;;;;;;;;;;4974996;28;20049;-70
2022/03/03 00:13:59;;;;;;;72.93;45.58;;;;;;;;;;4962539;28;20050;-70
2022/03/03 00:17:04;;;;;;;72.97;46.50;;;;;;;;;;4974798;28;20145;-71
2022/03/03 00:20:08;;;;;;;77.90;46.67;;;;;;;;;;4974858;28;20041;-71
2022/03/03 00:23:12;;;;;;;77.45;47.80;;;;;;;;;;4974753;28;20046;-70
2022/03/03 00:26:16;;;;;;;86.97;48.05;;;;;;;;;;4974891;28;20054;-70
2022/03/03 00:29:21;;;;;;;89.95;53.55;;;;;;;;;;4974529;28;20423;-70
2022/03/03 00:32:25;;;;;;;96.65;52.78;;;;;;;;;;4974487;28;20083;-70
2022/03/03 00:35:29;;;;;;;89.75;52.35;;;;;;;;;;4962664;28;20406;-71
2022/03/03 00:38:33;;;;;;;83.30;52.13;;;;;;;;;;4962440;28;20046;-71
2022/03/03 00:41:38;;;;;;;92.22;56.60;;;;;;;;;;4974280;28;20438;-71
2022/03/03 00:44:42;;;;;;;98.50;56.72;;;;;;;;;;4962584;28;20042;-70
2022/03/03 00:47:46;;;;;;;106.20;56.50;;;;;;;;;;4974613;28;20514;-70
2022/03/03 00:50:51;;;;;;;96.95;57.75;;;;;;;;;;4974339;28;20387;-70
2022/03/03 00:53:55;;;;;;;99.40;59.35;;;;;;;;;;4974419;28;20498;-70
2022/03/03 00:57:00;;;;;;;90.45;54.53;;;;;;;;;;4974092;28;20054;-70
2022/03/03 01:00:05;;;;;;;85.65;51.85;;;;;;;;;;4974142;28;20382;-70
2022/03/03 01:03:09;;;;;;;79.63;51.45;;;;;;;;;;4973912;28;20053;-70
2022/03/03 01:06:14;;;;;;;74.55;49.35;;;;;;;;;;4974263;28;20042;-70
2022/03/03 01:09:18;;;;;;;81.88;50.00;;;;;;;;;;4961954;28;20053;-70
2022/03/03 01:12:22;;;;;;;82.63;50.42;;;;;;;;;;4973777;28;20633;-70
2022/03/03 01:15:27;;;;;;;81.30;51.25;;;;;;;;;;4961835;28;20507;-71
2022/03/03 01:18:31;;;;;;;91.10;51.72;;;;;;;;;;4973779;28;20061;-71
2022/03/03 01:21:35;;;;;;;83.60;50.85;;;;;;;;;;4973953;28;20050;-71
2022/03/03 01:24:40;;;;;;;78.55;48.65;;;;;;;;;;4973822;28;20387;-71
2022/03/03 01:27:45;;;;;;;77.90;48.00;;;;;;;;;;4973473;28;20041;-71
2022/03/03 01:30:49;;;;;;;82.57;48.70;;;;;;;;;;4973693;28;20628;-71
2022/03/03 01:33:54;;;;;;;86.25;50.33;;;;;;;;;;4973411;28;20038;-71
2022/03/03 01:36:58;;;;;;;78.90;48.45;;;;;;;;;;4973452;28;20069;-71
2022/03/03 01:40:03;;;;;;;81.15;47.78;;;;;;;;;;4973398;28;20530;-71
2022/03/03 01:43:07;;;;;;;78.60;47.05;;;;;;;;;;4973553;28;20053;-71
2022/03/03 01:46:11;;;;;;;73.50;44.90;;;;;;;;;;4973347;28;20046;-71
2022/03/03 01:49:16;;;;;;;79.95;46.20;;;;;;;;;;4973282;28;20049;-71
2022/03/03 01:52:21;;;;;;;85.40;47.92;;;;;;;;;;4961386;28;20046;-71
2022/03/03 01:55:25;;;;;;;74.38;44.22;;;;;;;;;;4961105;28;20054;-71
2022/03/03 01:58:30;;;;;;;77.68;45.35;;;;;;;;;;4961099;28;20049;-70
2022/03/03 02:01:34;;;;;;;71.70;44.38;;;;;;;;;;4973091;28;20049;-70
2022/03/03 02:04:39;;;;;;;70.43;41.95;;;;;;;;;;4972844;28;20041;-71
2022/03/03 02:07:44;;;;;;;65.10;40.38;;;;;;;;;;4972926;28;20061;-71
2022/03/03 02:10:48;;;;;;;64.47;40.13;;;;;;;;;;4972370;28;20058;-70
2022/03/03 02:13:53;;;;;;;65.68;38.00;;;;;;;;;;4960834;28;20062;-70
2022/03/03 02:16:57;;;;;;;63.78;39.00;;;;;;;;;;4972811;28;20057;-71
2022/03/03 02:20:08;;;;;;;61.30;37.42;;;;;;;;;;4972913;28;20042;-71
2022/03/03 02:23:12;;;;;;;57.92;36.95;;;;;;;;;;4960467;28;20045;-70
2022/03/03 02:26:18;;;;;;;60.65;37.35;;;;;;;;;;4972557;28;20041;-70
2022/03/03 02:29:22;;;;;;;59.30;37.45;;;;;;;;;;4972749;28;20042;-71
2022/03/03 02:32:27;;;;;;;63.53;37.80;;;;;;;;;;4972739;28;20065;-72
2022/03/03 02:35:31;;;;;;;55.42;33.42;;;;;;;;;;4972452;28;20411;-71
2022/03/03 02:38:35;;;;;;;55.63;32.67;;;;;;;;;;4960770;28;20038;-71
2022/03/03 02:41:40;;;;;;;51.90;33.33;;;;;;;;;;4972673;28;20399;-71
2022/03/03 02:44:44;;;;;;;54.13;33.00;;;;;;;;;;4949622;28;20054;-71
2022/03/03 02:47:49;;;;;;;51.75;33.17;;;;;;;;;;4972222;28;20045;-71
2022/03/03 02:50:54;;;;;;;51.72;31.45;;;;;;;;;;4972486;28;20046;-71
2022/03/03 02:53:58;;;;;;;55.65;31.85;;;;;;;;;;4972098;28;20062;-71
2022/03/03 03:00:31;;;;;;;48.40;31.00;;;;;;;;;;4972285;28;20406;-71
2022/03/03 03:03:35;;;;;;;47.67;30.73;;;;;;;;;;4972176;28;20077;-71
2022/03/03 03:06:39;;;;;;;49.22;28.45;;;;;;;;;;4960342;28;20045;-71
2022/03/03 03:09:43;;;;;;;46.70;28.35;;;;;;;;;;4972334;28;20034;-71
2022/03/03 03:12:48;;;;;;;41.70;28.77;;;;;;;;;;4972191;28;20054;-71
2022/03/03 03:15:54;;;;;;;43.10;28.05;;;;;;;;;;4972353;28;20062;-70
2022/03/03 03:18:58;;;;;;;50.15;26.38;;;;;;;;;;4972225;28;20042;-71
2022/03/03 03:22:03;;;;;;;40.45;25.15;;;;;;;;;;4975856;28;20382;-71
2022/03/03 03:25:09;;;;;;;39.75;25.05;;;;;;;;;;4976074;28;20054;-71
2022/03/03 03:28:14;;;;;;;43.92;25.15;;;;;;;;;;4976030;28;20058;-71
2022/03/03 03:31:18;;;;;;;36.33;24.55;;;;;;;;;;4964056;28;20054;-71
2022/03/03 03:34:23;;;;;;;43.92;25.02;;;;;;;;;;4975677;28;20054;-71
2022/03/03 03:37:27;;;;;;;42.75;25.95;;;;;;;;;;4975848;28;20062;-71
2022/03/03 03:40:31;;;;;;;36.35;24.38;;;;;;;;;;4975595;28;20054;-71
2022/03/03 03:43:36;;;;;;;46.38;26.40;;;;;;;;;;4975736;28;20054;-71
2022/03/03 03:46:41;;;;;;;41.78;27.52;;;;;;;;;;4975630;28;20046;-71
2022/03/03 03:49:45;;;;;;;43.72;25.38;;;;;;;;;;4975694;28;20049;-71
2022/03/03 03:52:50;;;;;;;43.30;25.85;;;;;;;;;;4975505;28;20042;-71
2022/03/03 03:55:54;;;;;;;42.58;25.83;;;;;;;;;;4975289;28;20061;-71
2022/03/03 03:58:58;;;;;;;41.95;24.50;;;;;;;;;;4975396;28;20046;-71
2022/03/03 04:02:03;;;;;;;39.30;24.88;;;;;;;;;;4975224;28;20050;-71
2022/03/03 04:05:07;;;;;;;45.03;25.63;;;;;;;;;;4974948;28;20049;-71
2022/03/03 04:08:12;;;;;;;41.03;25.25;;;;;;;;;;4963389;28;20037;-71
2022/03/03 04:11:16;;;;;;;36.72;23.55;;;;;;;;;;4975292;28;20050;-71
2022/03/03 04:14:20;;;;;;;37.90;24.77;;;;;;;;;;4974808;28;20119;-71
2022/03/03 04:17:24;;;;;;;38.42;24.40;;;;;;;;;;4975092;28;20062;-71
2022/03/03 04:20:29;;;;;;;37.72;24.42;;;;;;;;;;4975075;28;20038;-72
2022/03/03 04:23:34;;;;;;;38.10;25.65;;;;;;;;;;4974967;28;20037;-72
2022/03/03 04:26:38;;;;;;;40.33;26.30;;;;;;;;;;4974966;28;20391;-72
2022/03/03 04:29:42;;;;;;;47.08;27.35;;;;;;;;;;4974870;28;20049;-72
2022/03/03 04:32:46;;;;;;;44.42;28.33;;;;;;;;;;4974072;28;20050;-71
2022/03/03 04:35:51;;;;;;;40.70;26.58;;;;;;;;;;4974510;28;20052;-71
2022/03/03 04:38:55;;;;;;;45.50;29.40;;;;;;;;;;4974677;28;20050;-71
2022/03/03 04:41:59;;;;;;;43.13;28.70;;;;;;;;;;4974601;28;20046;-71
2022/03/03 04:45:04;;;;;;;43.60;27.73;;;;;;;;;;4974319;28;20050;-71
2022/03/03 04:48:09;;;;;;;42.97;28.83;;;;;;;;;;4974432;28;20083;-71
2022/03/03 04:51:13;;;;;;;45.20;29.80;;;;;;;;;;4974417;28;20045;-71
2022/03/03 04:54:19;;;;;;;52.42;31.55;;;;;;;;;;4974221;28;20041;-71
2022/03/03 04:57:23;;;;;;;51.92;31.45;;;;;;;;;;4962481;28;20058;-71
2022/03/03 05:00:27;;;;;;;53.47;31.52;;;;;;;;;;4973984;28;20050;-71
2022/03/03 05:03:34;;;;;;;52.78;33.42;;;;;;;;;;4974202;28;20050;-72
2022/03/03 05:06:38;;;;;;;48.17;32.58;;;;;;;;;;4974196;28;20426;-71
2022/03/03 05:09:43;;;;;;;51.85;34.58;;;;;;;;;;4974209;28;20049;-71
2022/03/03 05:12:47;;;;;;;52.85;32.83;;;;;;;;;;4961799;28;20045;-71
2022/03/03 05:15:51;;;;;;;54.38;34.63;;;;;;;;;;4973614;28;20062;-71
2022/03/03 05:18:55;;;;;;;61.22;37.75;;;;;;;;;;4973646;28;20050;-72
2022/03/03 05:22:00;;;;;;;58.67;36.05;;;;;;;;;;4973979;28;20061;-72
2022/03/03 05:25:05;;;;;;;60.70;34.85;;;;;;;;;;4973741;28;20050;-72
2022/03/03 05:28:09;;;;;;;64.00;36.92;;;;;;;;;;4973716;28;20533;-72
2022/03/03 05:31:13;;;;;;;52.33;35.65;;;;;;;;;;4961478;28;20045;-72
2022/03/03 05:34:17;;;;;;;63.15;35.97;;;;;;;;;;4973567;28;20058;-73
2022/03/03 05:37:23;;;;;;;56.00;37.28;;;;;;;;;;4973717;28;20394;-71
2022/03/03 05:40:28;;;;;;;62.63;35.42;;;;;;;;;;4973172;28;20050;-72
2022/03/03 05:43:33;;;;;;;55.72;35.42;;;;;;;;;;4972763;28;20046;-72
2022/03/03 05:46:37;;;;;;;56.80;37.33;;;;;;;;;;4973206;28;20062;-72
2022/03/03 05:49:43;;;;;;;118.35;41.75;;;;;;;;;;4972904;28;20501;-71
2022/03/03 05:52:47;;;;;;;90.35;38.88;;;;;;;;;;4973061;28;20119;-72
2022/03/03 05:55:52;;;;;;;68.40;37.75;;;;;;;;;;4973078;28;20399;-73
2022/03/03 05:58:58;;;;;;;83.28;39.58;;;;;;;;;;4973173;28;20041;-72
2022/03/03 06:02:03;;;;;;;66.10;38.17;;;;;;;;;;4960856;28;20037;-72
2022/03/03 06:05:07;;;;;;;69.20;38.78;;;;;;;;;;4972791;28;20399;-72
2022/03/03 06:08:15;;;;;;;71.72;39.65;;;;;;;;;;4960772;28;20049;-72
2022/03/03 06:11:25;;;;;;;85.85;41.38;;;;;;;;;;4973114;28;20042;-71
2022/03/03 06:14:50;;;;;;;71.68;39.35;;;;;;;;;;4972702;28;20058;-72
2022/03/03 06:17:55;;;;;;;58.28;35.08;;;;;;;;;;4972808;28;20078;-72
2022/03/03 06:21:00;;;;;;;61.40;34.83;;;;;;;;;;4960603;28;20391;-71
2022/03/03 06:24:05;;;;;;;58.45;34.45;;;;;;;;;;4972246;28;20049;-72
2022/03/03 06:27:09;;;;;;;62.47;36.17;;;;;;;;;;4972450;28;20050;-71
2022/03/03 06:30:15;;;;;;;57.50;34.88;;;;;;;;;;4972369;28;20045;-72
2022/03/03 06:33:19;;;;;;;63.00;36.47;;;;;;;;;;4972245;28;20513;-72
2022/03/03 06:36:24;;;;;;;54.40;33.28;;;;;;;;;;4960298;28;20054;-72
2022/03/03 06:39:28;;;;;;;53.35;32.70;;;;;;;;;;4972236;28;20042;-72
2022/03/03 06:42:32;;;;;;;63.95;36.92;;;;;;;;;;4960039;28;20045;-72
2022/03/03 06:45:37;;;;;;;71.63;37.05;;;;;;;;;;4972297;28;20510;-72
2022/03/03 06:48:41;;;;;;;60.63;37.38;;;;;;;;;;4960550;28;20050;-71
2022/03/03 06:51:49;;;;;;;71.57;35.70;;;;;;;;;;4972352;28;20053;-72
2022/03/03 06:54:54;;;;;;;65.20;35.60;;;;;;;;;;4972194;28;20560;-73
2022/03/03 06:57:58;;;;;;;65.38;35.92;;;;;;;;;;4972455;28;20050;-73
2022/03/03 07:01:07;;;;;;;56.95;36.45;;;;;;;;;;4972414;28;20126;-73
2022/03/03 07:04:13;;;;;;;60.35;36.97;;;;;;;;;;4972481;28;20050;-73
2022/03/03 07:07:17;;;;;;;57.78;34.78;;;;;;;;;;4972290;28;20050;-73
2022/03/03 07:10:25;;;;;;;51.95;34.45;;;;;;;;;;4960064;28;20131;-73
2022/03/03 07:13:30;;;;;;;54.65;35.35;;;;;;;;;;4971831;28;20046;-72
2022/03/03 07:16:45;;;;;;;53.90;35.92;;;;;;;;;;4971570;28;20513;-72
2022/03/03 07:20:16;;;;;;;60.35;35.67;;;;;;;;;;4949232;28;20050;-73
2022/03/03 07:23:35;;;;;;;61.47;36.65;;;;;;;;;;4959975;28;20045;-73
2022/03/03 07:26:42;;;;;;;56.70;35.95;;;;;;;;;;4959963;28;20065;-71
2022/03/03 07:29:50;;;;;;;52.60;34.55;;;;;;;;;;4960479;28;20054;-72
2022/03/03 07:33:06;;;;;;;56.53;34.08;;;;;;;;;;4972057;28;20050;-70
2022/03/03 07:36:10;;;;;;;56.38;35.22;;;;;;;;;;4971846;28;20062;-72
2022/03/03 07:39:17;;;;;;;56.47;35.55;;;;;;;;;;4971800;28;20042;-69
2022/03/03 07:42:22;;;;;;;62.92;36.38;;;;;;;;;;4959666;28;20127;-71
2022/03/03 07:45:29;;;;;;;65.85;37.30;;;;;;;;;;4960099;28;20072;-73
2022/03/03 07:48:34;;;;;;;60.28;36.85;;;;;;;;;;4959599;28;20034;-72
2022/03/03 07:51:40;;;;;;;62.63;35.83;;;;;;;;;;4971617;28;20070;-74
2022/03/03 07:54:45;;;;;;;61.75;34.47;;;;;;;;;;4971327;28;20046;-72
2022/03/03 07:57:52;;;;;;;51.03;32.85;;;;;;;;;;4971814;28;20111;-73
2022/03/03 08:00:58;;;;;;;47.75;31.70;;;;;;;;;;4971339;28;20073;-74
2022/03/03 08:04:02;;;;;;;62.33;34.17;;;;;;;;;;4971664;28;20041;-72
2022/03/03 08:07:08;;;;;;;55.42;32.20;;;;;;;;;;4972037;28;20387;-72
2022/03/03 08:10:13;;;;;;;51.63;32.05;;;;;;;;;;4974948;28;20419;-70
2022/03/03 08:13:18;;;;;;;49.20;28.77;;;;;;;;;;4974637;28;20057;-70
2022/03/03 08:16:22;;;;;;;49.28;30.95;;;;;;;;;;4974517;28;20070;-72
2022/03/03 08:19:26;;;;;;;45.22;28.48;;;;;;;;;;4974902;28;20050;-74
2022/03/03 08:22:31;;;;;;;36.15;25.08;;;;;;;;;;4951719;28;20206;-71
2022/03/03 08:25:35;;;;;;;36.45;24.30;;;;;;;;;;4974586;28;20038;-73
2022/03/03 08:28:43;;;;;;;32.45;21.00;;;;;;;;;;4974882;28;20123;-72
2022/03/03 08:31:54;;;;;;;31.85;19.33;;;;;;;;;;4974889;28;20054;-71
2022/03/03 08:35:04;;;;;;;22.05;14.35;;;;;;;;;;4951425;28;20529;-72
2022/03/03 08:38:17;;;;;;;18.30;12.73;;;;;;;;;;4974220;28;20045;-70
2022/03/03 08:41:22;;;;;;;13.30;10.00;;;;;;;;;;4974773;28;20517;-70
2022/03/03 08:44:27;;;;;;;24.77;13.32;;;;;;;;;;4962380;28;20046;-73
2022/03/03 08:47:32;;;;;;;23.73;11.30;;;;;;;;;;4974376;28;20037;-71
2022/03/03 08:50:38;;;;;;;14.20;10.27;;;;;;;;;;4962213;28;20111;-70
2022/03/03 08:53:42;;;;;;;13.55;8.98;;;;;;;;;;4974244;28;20058;-69
2022/03/03 08:56:47;;;;;;;16.92;9.52;;;;;;;;;;4974008;28;20423;-70
2022/03/03 08:59:51;;;;;;;12.63;9.48;;;;;;;;;;4974118;28;20045;-70
2022/03/03 09:02:55;;;;;;;16.92;10.45;;;;;;;;;;4974244;28;20399;-71
2022/03/03 09:06:00;;;;;;;13.95;9.40;;;;;;;;;;4974183;28;20046;-71
2022/03/03 09:09:05;;;;;;;23.27;11.63;;;;;;;;;;4974175;28;20049;-71
2022/03/03 09:12:09;;;;;;;18.42;11.15;;;;;;;;;;4950771;28;20045;-71
2022/03/03 09:15:13;;;;;;;18.05;10.23;;;;;;;;;;4973019;28;20054;-71
2022/03/03 09:18:21;;;;;;;21.58;11.60;;;;;;;;;;4961787;28;20054;-74
2022/03/03 09:21:27;;;;;;;14.52;10.73;;;;;;;;;;4973580;28;20041;-73
2022/03/03 09:24:32;;;;;;;17.50;10.95;;;;;;;;;;4950602;28;20050;-72
2022/03/03 09:27:36;;;;;;;19.27;10.82;;;;;;;;;;4973453;28;20458;-72
2022/03/03 09:30:40;;;;;;;17.90;10.80;;;;;;;;;;4973502;28;20371;-71
2022/03/03 09:33:44;;;;;;;14.75;10.23;;;;;;;;;;4973076;28;20054;-69
2022/03/03 09:36:49;;;;;;;16.35;11.35;;;;;;;;;;4961118;28;20406;-70
2022/03/03 09:39:53;;;;;;;15.60;9.45;;;;;;;;;;4973505;28;20045;-72
2022/03/03 09:42:58;;;;;;;11.40;8.55;;;;;;;;;;4961233;28;20509;-72
2022/03/03 09:46:02;;;;;;;11.32;7.97;;;;;;;;;;4973265;28;20039;-73
2022/03/03 09:49:07;;;;;;;13.90;7.82;;;;;;;;;;4972969;28;20665;-72
2022/03/03 09:52:16;;;;;;;10.30;6.97;;;;;;;;;;4973091;28;20505;-70
2022/03/03 09:55:20;;;;;;;14.05;8.95;;;;;;;;;;4973045;28;20116;-69
2022/03/03 09:58:28;;;;;;;17.90;9.50;;;;;;;;;;4973424;28;20063;-71
2022/03/03 10:01:32;;;;;;;10.70;7.00;;;;;;;;;;4972800;28;20043;-70
2022/03/03 10:04:36;;;;;;;10.57;7.38;;;;;;;;;;4972953;28;20043;-73
2022/03/03 10:07:41;;;;;;;15.57;6.75;;;;;;;;;;4972870;28;20061;-71
2022/03/03 10:10:47;;;;;;;12.65;7.60;;;;;;;;;;4973011;28;20034;-71
2022/03/03 10:13:53;;;;;;;13.20;7.85;;;;;;;;;;4972373;28;20043;-70
2022/03/03 10:16:57;;;;;;;9.93;6.93;;;;;;;;;;4972168;28;20053;-71
2022/03/03 10:20:04;;;;;;;10.57;8.25;;;;;;;;;;4960605;28;20483;-70
2022/03/03 10:23:11;;;;;;;13.70;8.35;;;;;;;;;;4971891;28;20050;-69
2022/03/03 10:26:16;;;;;;;22.17;11.45;;;;;;;;;;4972535;28;20071;-71
2022/03/03 10:29:21;;;;;;;17.73;10.73;;;;;;;;;;4972513;28;20049;-71
2022/03/03 10:32:26;;;;;;;19.83;11.50;;;;;;;;;;4972470;28;20053;-71
2022/03/03 10:35:30;;;;;;;21.92;11.45;;;;;;;;;;4960339;28;20506;-70
2022/03/03 10:38:43;;;;;;;15.77;10.88;;;;;;;;;;4972432;28;20057;-70
2022/03/03 10:41:47;;;;;;;18.83;10.70;;;;;;;;;;4972515;28;20150;-71
2022/03/03 10:45:06;;;;;;;15.50;10.50;;;;;;;;;;4972375;28;20053;-71
2022/03/03 10:48:10;;;;;;;13.60;9.43;;;;;;;;;;4960261;28;20053;-73
2022/03/03 10:51:15;;;;;;;14.43;8.75;;;;;;;;;;4971906;28;20505;-71
2022/03/03 10:54:19;;;;;;;17.58;9.07;;;;;;;;;;4972044;28;20042;-71
2022/03/03 10:57:43;;;;;;;14.50;8.85;;;;;;;;;;4971930;28;20046;-71
2022/03/03 11:00:47;;;;;;;13.68;8.20;;;;;;;;;;4971838;28;20241;-70
2022/03/03 11:03:53;;;;;;;13.82;8.77;;;;;;;;;;4960375;28;20035;-71
2022/03/03 11:06:57;;;;;;;19.77;9.13;;;;;;;;;;4972389;28;20046;-70
2022/03/03 11:10:05;;;;;;;16.77;9.32;;;;;;;;;;4971931;28;20039;-72
2022/03/03 11:13:10;;;;;;;18.25;9.60;;;;;;;;;;4972056;28;20043;-71
2022/03/03 11:16:21;;;;;;;15.25;9.25;;;;;;;;;;4971602;28;20054;-71
2022/03/03 11:19:26;;;;;;;15.93;10.18;;;;;;;;;;4970690;28;20498;-72
2022/03/03 11:22:31;;;;;;;18.15;9.52;;;;;;;;;;4970922;28;20050;-71
2022/03/03 11:25:36;;;;;;;15.35;9.85;;;;;;;;;;4970956;28;20039;-73
2022/03/03 11:28:40;;;;;;;20.95;10.20;;;;;;;;;;4971400;28;20068;-71
2022/03/03 11:31:46;;;;;;;16.00;9.70;;;;;;;;;;4970980;28;20041;-74
2022/03/03 11:34:50;;;;;;;14.13;10.02;;;;;;;;;;4958708;28;20704;-72
2022/03/03 11:37:55;;;;;;;12.45;9.05;;;;;;;;;;4969579;28;20054;-71
2022/03/03 11:41:01;;;;;;;18.92;10.23;;;;;;;;;;4969958;28;20263;-72
2022/03/03 11:44:07;;;;;;;14.27;9.27;;;;;;;;;;4973022;28;20046;-71
2022/03/03 11:47:18;;;;;;;14.85;10.50;;;;;;;;;;4973584;28;20218;-74
2022/03/03 11:50:27;;;;;;;18.77;11.07;;;;;;;;;;4962649;28;20054;-74
2022/03/03 11:53:32;;;;;;;16.70;10.73;;;;;;;;;;4974925;28;20042;-73
2022/03/03 11:56:55;;;;;;;18.35;10.63;;;;;;;;;;4975434;28;20058;-73
2022/03/03 12:00:01;;;;;;;15.70;9.80;;;;;;;;;;4974743;28;20049;-73
2022/03/03 12:03:06;;;;;;;14.55;9.75;;;;;;;;;;4975130;28;20042;-76
2022/03/03 12:06:13;;;;;;;13.25;9.25;;;;;;;;;;4975055;28;20039;-73
2022/03/03 12:09:21;;;;;;;13.60;9.02;;;;;;;;;;4974928;28;20330;-73
2022/03/03 12:12:29;;;;;;;18.35;10.80;;;;;;;;;;4974781;28;20038;-73
2022/03/03 12:15:37;;;;;;;12.93;8.55;;;;;;;;;;4951825;28;20058;-71
2022/03/03 12:18:42;;;;;;;12.70;8.98;;;;;;;;;;4974899;28;20042;-70
2022/03/03 12:21:48;;;;;;;19.92;8.98;;;;;;;;;;4974824;28;20035;-72
2022/03/03 12:24:52;;;;;;;24.63;16.50;;;;;;;;;;4974800;28;20046;-71
2022/03/03 12:28:16;;;;;;;14.52;10.43;;;;;;;;;;4974779;28;20042;-71
2022/03/03 12:31:22;;;;;;;15.10;8.82;;;;;;;;;;4974701;28;20065;-72
2022/03/03 12:34:26;;;;;;;18.80;11.82;;;;;;;;;;4974675;28;20042;-71
2022/03/03 12:37:32;;;;;;;14.02;8.70;;;;;;;;;;4974490;28;20406;-70
2022/03/03 12:40:36;;;;;;;12.18;8.73;;;;;;;;;;4974552;28;20046;-71
2022/03/03 12:43:41;;;;;;;18.05;9.35;;;;;;;;;;4974692;28;20046;-72
2022/03/03 12:46:46;;;;;;;12.90;7.82;;;;;;;;;;4974411;28;20400;-72
2022/03/03 12:49:51;;;;;;;14.52;8.20;;;;;;;;;;4977117;28;20042;-71
2022/03/03 12:52:58;;;;;;;13.75;8.77;;;;;;;;;;4974175;28;20444;-69
2022/03/03 12:56:03;;;;;;;11.35;7.10;;;;;;;;;;4973893;28;20046;-70
2022/03/03 12:59:08;;;;;;;14.32;8.82;;;;;;;;;;4974609;28;20058;-70
2022/03/03 13:02:13;;;;;;;12.45;8.70;;;;;;;;;;4974310;28;20042;-68
2022/03/03 13:05:31;;;;;;;21.50;10.15;;;;;;;;;;4974589;28;20034;-69
2022/03/03 13:08:36;;;;;;;17.58;8.05;;;;;;;;;;4962159;28;20068;-68
2022/03/03 13:11:41;;;;;;;19.13;8.52;;;;;;;;;;4973991;28;20042;-72
2022/03/03 13:14:55;;;;;;;10.98;7.88;;;;;;;;;;4973901;28;20061;-71
2022/03/03 13:18:00;;;;;;;10.90;7.85;;;;;;;;;;4962072;28;20051;-72
2022/03/03 13:21:06;;;;;;;16.35;8.23;;;;;;;;;;4974262;28;20483;-71
2022/03/03 13:24:11;;;;;;;13.90;6.53;;;;;;;;;;4973889;28;20042;-71
2022/03/03 13:27:15;;;;;;;14.00;7.30;;;;;;;;;;4973974;28;20399;-72
2022/03/03 13:30:20;;;;;;;9.25;6.55;;;;;;;;;;4978899;28;20056;-71
2022/03/03 13:33:42;;;;;;;11.10;6.60;;;;;;;;;;4973605;28;20034;-72
2022/03/03 13:36:47;;;;;;;14.85;6.88;;;;;;;;;;4973262;28;20051;-71
2022/03/03 13:39:51;;;;;;;15.00;7.53;;;;;;;;;;4973989;28;20051;-73
2022/03/03 13:42:57;;;;;;;20.60;8.88;;;;;;;;;;4973917;28;20049;-73
2022/03/03 13:46:01;;;;;;;14.27;8.10;;;;;;;;;;4962074;28;20050;-74
2022/03/03 13:49:07;;;;;;;10.32;6.47;;;;;;;;;;4973556;28;20042;-72
2022/03/03 13:52:11;;;;;;;11.45;8.20;;;;;;;;;;4973257;28;20047;-72
2022/03/03 13:55:16;;;;;;;20.35;9.18;;;;;;;;;;4973387;28;20396;-72
2022/03/03 13:58:21;;;;;;;12.10;7.97;;;;;;;;;;4973550;28;20039;-75
2022/03/03 14:01:27;;;;;;;11.20;7.00;;;;;;;;;;4961418;28;20043;-75
2022/03/03 14:04:32;;;;;;;9.82;8.13;;;;;;;;;;4972381;28;20045;-73
2022/03/03 14:07:37;;;;;;;8.27;6.30;;;;;;;;;;4972718;28;20047;-76
2022/03/03 14:11:04;;;;;;;11.57;6.82;;;;;;;;;;4949974;28;20400;-74
2022/03/03 14:14:17;;;;;;;12.85;6.65;;;;;;;;;;4972941;28;20045;-70
2022/03/03 14:17:23;;;;;;;16.15;6.70;;;;;;;;;;4972729;28;20051;-69
2022/03/03 14:20:27;;;;;;;12.27;7.10;;;;;;;;;;4972907;28;20054;-72
2022/03/03 14:23:32;;;;;;;16.42;7.07;;;;;;;;;;4960941;28;20066;-72
2022/03/03 14:26:37;;;;;;;18.63;6.70;;;;;;;;;;4972697;28;20041;-70
2022/03/03 14:29:45;;;;;;;11.15;6.15;;;;;;;;;;4972754;28;20050;-71
2022/03/03 14:32:50;;;;;;;11.73;7.13;;;;;;;;;;4972343;28;20038;-69
2022/03/03 14:35:56;;;;;;;11.38;6.93;;;;;;;;;;4972444;28;20039;-70
2022/03/03 14:39:00;;;;;;;13.63;6.60;;;;;;;;;;4972361;28;20047;-73
2022/03/03 14:42:05;;;;;;;9.48;6.15;;;;;;;;;;4960426;28;20045;-70
2022/03/03 14:45:11;;;;;;;13.77;9.63;;;;;;;;;;4972234;28;20486;-72
2022/03/03 14:48:16;;;;;;;16.20;8.65;;;;;;;;;;4972213;28;20379;-71
2022/03/03 14:51:20;;;;;;;13.55;7.35;;;;;;;;;;4972328;28;20034;-72
2022/03/03 14:54:27;;;;;;;12.75;7.55;;;;;;;;;;4972055;28;20054;-70
2022/03/03 14:57:32;;;;;;;15.35;7.22;;;;;;;;;;4972172;28;20042;-73
2022/03/03 15:00:39;;;;;;;16.52;7.82;;;;;;;;;;4972326;28;20046;-71
2022/03/03 15:03:44;;;;;;;14.43;8.48;;;;;;;;;;4972146;28;20047;-69
2022/03/03 15:06:52;;;;;;;14.80;7.80;;;;;;;;;;4972008;28;20046;-75
2022/03/03 15:09:56;;;;;;;11.70;6.90;;;;;;;;;;4972214;28;20051;-73
2022/03/03 15:13:02;;;;;;;17.73;8.75;;;;;;;;;;4972056;28;20038;-71
2022/03/03 15:16:07;;;;;;;24.67;14.43;;;;;;;;;;4972067;28;20062;-74
2022/03/03 15:19:12;;;;;;;23.35;9.75;;;;;;;;;;4975953;28;20061;-75
2022/03/03 15:22:16;;;;;;;23.45;10.70;;;;;;;;;;4976052;28;20389;-71
2022/03/03 15:25:20;;;;;;;15.32;9.40;;;;;;;;;;4975695;28;20061;-70
2022/03/03 15:28:25;;;;;;;13.82;8.57;;;;;;;;;;4975753;28;20390;-72
2022/03/03 15:31:30;;;;;;;16.02;8.88;;;;;;;;;;4975416;28;20038;-72
2022/03/03 15:38:00;;;;;;;15.23;7.60;;;;;;;;;;4975433;28;20077;-71
2022/03/03 15:41:04;;;;;;;13.15;8.25;;;;;;;;;;4975265;28;20031;-70
2022/03/03 15:44:09;;;;;;;20.25;8.52;;;;;;;;;;4975912;28;20212;-73
2022/03/03 15:47:14;;;;;;;20.23;8.85;;;;;;;;;;4975628;28;20486;-71
2022/03/03 15:50:19;;;;;;;17.88;8.65;;;;;;;;;;4975713;28;20046;-70
2022/03/03 15:53:23;;;;;;;20.00;9.07;;;;;;;;;;4975563;28;20053;-72
2022/03/03 15:56:28;;;;;;;14.77;8.20;;;;;;;;;;4975613;28;20388;-71
2022/03/03 15:59:32;;;;;;;16.98;10.50;;;;;;;;;;4975253;28;20059;-71
2022/03/03 16:02:36;;;;;;;29.45;11.48;;;;;;;;;;4975306;28;20046;-70
2022/03/03 16:05:41;;;;;;;19.45;11.70;;;;;;;;;;4975290;28;20513;-73
2022/03/03 16:08:46;;;;;;;19.08;11.15;;;;;;;;;;4974970;28;20046;-71
2022/03/03 16:11:51;;;;;;;37.20;13.40;;;;;;;;;;4974686;28;20042;-72
2022/03/03 16:14:55;;;;;;;19.13;9.50;;;;;;;;;;4974652;28;20058;-72
2022/03/03 16:17:59;;;;;;;17.05;8.75;;;;;;;;;;4974658;28;20050;-72
2022/03/03 16:21:04;;;;;;;14.55;9.07;;;;;;;;;;4974867;28;20035;-74
2022/03/03 16:24:08;;;;;;;15.07;9.13;;;;;;;;;;4974612;28;20498;-72
2022/03/03 16:27:12;;;;;;;16.70;9.40;;;;;;;;;;4974549;28;20039;-74
2022/03/03 16:30:17;;;;;;;17.42;9.85;;;;;;;;;;4962990;28;20507;-73
2022/03/03 16:33:21;;;;;;;15.80;9.88;;;;;;;;;;4974639;28;20031;-72
2022/03/03 16:36:25;;;;;;;15.07;10.27;;;;;;;;;;4974329;28;20039;-71
2022/03/03 16:39:29;;;;;;;22.67;11.82;;;;;;;;;;4973797;28;20050;-69
2022/03/03 16:42:34;;;;;;;20.02;11.73;;;;;;;;;;4973980;28;20050;-70
2022/03/03 16:45:38;;;;;;;18.08;11.25;;;;;;;;;;4973806;28;20502;-72
2022/03/03 16:48:43;;;;;;;21.10;12.23;;;;;;;;;;4973796;28;20045;-72
2022/03/03 16:51:47;;;;;;;56.20;18.13;;;;;;;;;;4974007;28;20066;-71
2022/03/03 16:54:52;;;;;;;30.13;12.50;;;;;;;;;;4974187;28;20455;-72
2022/03/03 16:57:56;;;;;;;21.17;10.65;;;;;;;;;;4973823;28;20046;-73
2022/03/03 17:01:00;;;;;;;38.58;13.10;;;;;;;;;;4961971;28;20038;-70
2022/03/03 17:04:05;;;;;;;25.90;13.23;;;;;;;;;;4974373;28;20050;-68
2022/03/03 17:07:09;;;;;;;31.42;15.05;;;;;;;;;;4974005;28;20054;-72
2022/03/03 17:10:14;;;;;;;21.25;14.57;;;;;;;;;;4974075;28;20050;-70
2022/03/03 17:13:18;;;;;;;25.10;14.60;;;;;;;;;;4961539;28;20046;-71
2022/03/03 17:16:24;;;;;;;25.63;15.15;;;;;;;;;;4961540;28;20058;-71
2022/03/03 17:19:28;;;;;;;27.98;15.50;;;;;;;;;;4973667;28;20414;-68
2022/03/03 17:22:32;;;;;;;23.20;15.23;;;;;;;;;;4950481;28;20046;-70
2022/03/03 17:25:37;;;;;;;23.10;15.80;;;;;;;;;;4973386;28;20046;-70
2022/03/03 17:28:41;;;;;;;27.50;14.52;;;;;;;;;;4973302;28;20046;-70
2022/03/03 17:31:46;;;;;;;22.23;13.13;;;;;;;;;;4961310;28;20076;-71
2022/03/03 17:34:50;;;;;;;20.75;12.80;;;;;;;;;;4973579;28;20049;-71
2022/03/03 17:37:55;;;;;;;18.17;11.82;;;;;;;;;;4972849;28;20050;-74
2022/03/03 17:40:59;;;;;;;21.60;13.48;;;;;;;;;;4961191;28;20049;-73
2022/03/03 17:44:05;;;;;;;23.05;13.27;;;;;;;;;;4973046;28;20380;-70
2022/03/03 17:47:10;;;;;;;21.98;12.55;;;;;;;;;;4973236;28;20041;-71
2022/03/03 17:50:14;;;;;;;20.60;13.15;;;;;;;;;;4973107;28;20098;-72
2022/03/03 17:53:18;;;;;;;21.98;12.93;;;;;;;;;;4973003;28;20041;-72
2022/03/03 17:56:23;;;;;;;35.58;15.40;;;;;;;;;;4973085;28;20119;-72
2022/03/03 17:59:27;;;;;;;25.05;16.27;;;;;;;;;;4960921;28;20553;-72
2022/03/03 18:02:32;;;;;;;33.72;16.88;;;;;;;;;;4972637;28;20042;-72
2022/03/03 18:05:37;;;;;;;30.30;16.60;;;;;;;;;;4972794;28;20046;-72
2022/03/03 18:08:41;;;;;;;25.42;15.73;;;;;;;;;;4972722;28;20042;-72
2022/03/03 18:11:45;;;;;;;22.48;14.90;;;;;;;;;;4972500;28;20042;-70